CSL Niagara — VCGJ — position and weather

sailwx.info

Track history (hours):
 
Tides and Currents Weather Stations Pressure Air Temp Water Temp Dewpoint Dewpoint Depression Visibility Wind Speed Wind Dir Waves Ship Positions

CSL Niagara

ex J. W. McGiffin

Last reported at 2016-Jan-07 00:18 UTC. Time now 2016-Feb-12 05:46 UTC.
Position N 42°42' W 079°50'.
Warning: this ship's position is 36 days out of date.

Length 225 m; draft 8.4 m.

Type: Cargo ship. MMSI: 316029000.

Date/timePositionNaut miles runAvg speedWind from/ knotsBaromVisibWave heightAir tempDewpointWater temp
2016-Jan-07 00:18N 42°42' W 079°50'5 6.7
2016-Jan-06 23:33N 42°44' W 079°56'7 6.7
2016-Jan-06 22:30N 42°47' W 080°05'0 0.0
2016-Jan-06 21:30N 42°47' W 080°05'0 0.0
2016-Jan-06 20:30N 42°47' W 080°05'0 0.0
2016-Jan-06 19:30N 42°47' W 080°05'0 0.0
2016-Jan-06 18:30N 42°47' W 080°05'0 0.0
2016-Jan-06 17:30N 42°47' W 080°05'0 0.0
2016-Jan-06 16:30N 42°47' W 080°05'0 0.0
2016-Jan-06 15:30N 42°47' W 080°05'0 0.0
2016-Jan-06 14:30N 42°47' W 080°05'0 0.0
2016-Jan-06 13:30N 42°47' W 080°05'1 1.2
2016-Jan-06 12:33N 42°46' W 080°04'3 2.9
2016-Jan-06 11:29N 42°43' W 080°07'0 0.0
2016-Jan-06 10:17N 42°43' W 080°07'0 0.0
2016-Jan-06 09:29N 42°43' W 080°07'0 0.0
2016-Jan-06 08:29N 42°43' W 080°07'0 0.0
2016-Jan-06 07:29N 42°43' W 080°07'0 0.0
2016-Jan-06 06:29N 42°43' W 080°07'0 0.1
2016-Jan-06 05:32N 42°43' W 080°07'5 5.0
2016-Jan-06 04:33N 42°39' W 080°04'  
2016-Jan-02 20:21N 47°01' W 091°33'911.7
2016-Jan-02 19:33N 46°54' W 091°43'1211.7
2016-Jan-02 18:33N 46°46' W 091°56'6 5.8
2016-Jan-02 17:33N 46°42' W 092°01'0 0.0
2016-Jan-02 16:33N 46°42' W 092°01'0 0.0
2016-Jan-02 15:33N 46°42' W 092°01'0 0.0
2016-Jan-02 14:33N 46°42' W 092°01'0 0.0
2016-Jan-02 13:33N 46°42' W 092°01'0 0.0
2016-Jan-02 12:33N 46°42' W 092°01'0 0.0
2016-Jan-02 11:33N 46°42' W 092°01'0 0.0
2016-Jan-02 10:34N 46°42' W 092°01'0 0.0
2016-Jan-02 09:34N 46°42' W 092°01'0 0.0
2016-Jan-02 08:33N 46°42' W 092°01'0 0.0
2016-Jan-02 07:33N 46°42' W 092°01'0 0.0
2016-Jan-02 06:33N 46°42' W 092°01'0 0.0
2016-Jan-02 05:33N 46°42' W 092°01'0 0.0
2016-Jan-02 04:33N 46°42' W 092°01'0 0.0
2016-Jan-02 03:33N 46°42' W 092°01'0 0.0
2016-Jan-02 02:33N 46°42' W 092°01'0 0.0
2016-Jan-02 01:33N 46°42' W 092°01'0 0.0
2016-Jan-02 00:33N 46°42' W 092°01'0 0.0
2016-Jan-01 23:33N 46°42' W 092°01'0 0.0
2016-Jan-01 22:33N 46°42' W 092°01'2 2.0
2016-Jan-01 21:33N 46°43' W 091°59'0 0.4
2016-Jan-01 20:34N 46°43' W 091°58'0 0.1
2016-Jan-01 19:34N 46°43' W 091°58'0 0.0
2016-Jan-01 18:33N 46°43' W 091°58'0 0.0
2016-Jan-01 17:34N 46°43' W 091°58'0 0.0
2016-Jan-01 16:34N 46°43' W 091°58'0 0.0
2016-Jan-01 15:33N 46°43' W 091°58'0 0.0
2016-Jan-01 14:33N 46°43' W 091°58'0 0.0
2016-Jan-01 13:33N 46°43' W 091°58'0 0.0
2016-Jan-01 12:33N 46°43' W 091°58'0 0.0
2016-Jan-01 11:33N 46°43' W 091°58'0 0.0
2016-Jan-01 10:33N 46°43' W 091°58'0 0.1
2016-Jan-01 09:33N 46°43' W 091°58'0 0.0
2016-Jan-01 08:33N 46°43' W 091°58'0 0.0
2016-Jan-01 07:33N 46°43' W 091°58'0 0.0
2016-Jan-01 06:33N 46°43' W 091°58'0 0.0
2016-Jan-01 05:33N 46°43' W 091°58'2 2.0
2016-Jan-01 04:31N 46°44' W 091°56'1111.7
2016-Jan-01 03:33N 46°49' W 091°41'1211.6
2016-Jan-01 02:33N 46°55' W 091°26'  
Track history (hours):
 
Tides and Currents Weather Stations Pressure Air Temp Water Temp Dewpoint Dewpoint Depression Visibility Wind Speed Wind Dir Waves Ship Positions

CSL Niagara

ex J. W. McGiffin

Last reported at 2016-Jan-07 00:18 UTC. Time now 2016-Feb-12 05:46 UTC.
Position N 42°42' W 079°50'.
Warning: this ship's position is 36 days out of date.

Length 225 m; draft 8.4 m.

Type: Cargo ship. MMSI: 316029000.

Date/timePositionNaut miles runAvg speedWind from/ knotsBaromVisibWave heightAir tempDewpointWater temp
2016-Jan-07 00:18N 42°42' W 079°50'5 6.7
2016-Jan-06 23:33N 42°44' W 079°56'7 6.7
2016-Jan-06 22:30N 42°47' W 080°05'0 0.0
2016-Jan-06 21:30N 42°47' W 080°05'0 0.0
2016-Jan-06 20:30N 42°47' W 080°05'0 0.0
2016-Jan-06 19:30N 42°47' W 080°05'0 0.0
2016-Jan-06 18:30N 42°47' W 080°05'0 0.0
2016-Jan-06 17:30N 42°47' W 080°05'0 0.0
2016-Jan-06 16:30N 42°47' W 080°05'0 0.0
2016-Jan-06 15:30N 42°47' W 080°05'0 0.0
2016-Jan-06 14:30N 42°47' W 080°05'0 0.0
2016-Jan-06 13:30N 42°47' W 080°05'1 1.2
2016-Jan-06 12:33N 42°46' W 080°04'3 2.9
2016-Jan-06 11:29N 42°43' W 080°07'0 0.0
2016-Jan-06 10:17N 42°43' W 080°07'0 0.0
2016-Jan-06 09:29N 42°43' W 080°07'0 0.0
2016-Jan-06 08:29N 42°43' W 080°07'0 0.0
2016-Jan-06 07:29N 42°43' W 080°07'0 0.0
2016-Jan-06 06:29N 42°43' W 080°07'0 0.1
2016-Jan-06 05:32N 42°43' W 080°07'5 5.0
2016-Jan-06 04:33N 42°39' W 080°04'  
2016-Jan-02 20:21N 47°01' W 091°33'911.7
2016-Jan-02 19:33N 46°54' W 091°43'1211.7
2016-Jan-02 18:33N 46°46' W 091°56'6 5.8
2016-Jan-02 17:33N 46°42' W 092°01'0 0.0
2016-Jan-02 16:33N 46°42' W 092°01'0 0.0
2016-Jan-02 15:33N 46°42' W 092°01'0 0.0
2016-Jan-02 14:33N 46°42' W 092°01'0 0.0
2016-Jan-02 13:33N 46°42' W 092°01'0 0.0
2016-Jan-02 12:33N 46°42' W 092°01'0 0.0
2016-Jan-02 11:33N 46°42' W 092°01'0 0.0
2016-Jan-02 10:34N 46°42' W 092°01'0 0.0
2016-Jan-02 09:34N 46°42' W 092°01'0 0.0
2016-Jan-02 08:33N 46°42' W 092°01'0 0.0
2016-Jan-02 07:33N 46°42' W 092°01'0 0.0
2016-Jan-02 06:33N 46°42' W 092°01'0 0.0
2016-Jan-02 05:33N 46°42' W 092°01'0 0.0
2016-Jan-02 04:33N 46°42' W 092°01'0 0.0
2016-Jan-02 03:33N 46°42' W 092°01'0 0.0
2016-Jan-02 02:33N 46°42' W 092°01'0 0.0
2016-Jan-02 01:33N 46°42' W 092°01'0 0.0
2016-Jan-02 00:33N 46°42' W 092°01'0 0.0
2016-Jan-01 23:33N 46°42' W 092°01'0 0.0
2016-Jan-01 22:33N 46°42' W 092°01'2 2.0
2016-Jan-01 21:33N 46°43' W 091°59'0 0.4
2016-Jan-01 20:34N 46°43' W 091°58'0 0.1
2016-Jan-01 19:34N 46°43' W 091°58'0 0.0
2016-Jan-01 18:33N 46°43' W 091°58'0 0.0
2016-Jan-01 17:34N 46°43' W 091°58'0 0.0
2016-Jan-01 16:34N 46°43' W 091°58'0 0.0
2016-Jan-01 15:33N 46°43' W 091°58'0 0.0
2016-Jan-01 14:33N 46°43' W 091°58'0 0.0
2016-Jan-01 13:33N 46°43' W 091°58'0 0.0
2016-Jan-01 12:33N 46°43' W 091°58'0 0.0
2016-Jan-01 11:33N 46°43' W 091°58'0 0.0
2016-Jan-01 10:33N 46°43' W 091°58'0 0.1
2016-Jan-01 09:33N 46°43' W 091°58'0 0.0
2016-Jan-01 08:33N 46°43' W 091°58'0 0.0
2016-Jan-01 07:33N 46°43' W 091°58'0 0.0
2016-Jan-01 06:33N 46°43' W 091°58'0 0.0
2016-Jan-01 05:33N 46°43' W 091°58'2 2.0
2016-Jan-01 04:31N 46°44' W 091°56'1111.7
2016-Jan-01 03:33N 46°49' W 091°41'1211.6
2016-Jan-01 02:33N 46°55' W 091°26'  

Dump ship's entire track history